createdAt,value
2019-05-02T00:01:35.856Z,5.75
2019-05-02T00:04:04.778Z,5.30
2019-05-02T00:06:37.897Z,5.83
2019-05-02T00:09:09.291Z,6.00
2019-05-02T00:11:36.914Z,6.83
2019-05-02T00:16:35.399Z,7.40
2019-05-02T00:19:04.218Z,8.03
2019-05-02T00:21:37.777Z,8.93
2019-05-02T00:24:04.233Z,7.37
2019-05-02T00:26:32.980Z,9.70
2019-05-02T00:29:01.759Z,10.08
2019-05-02T00:31:30.850Z,9.00
2019-05-02T00:33:59.671Z,10.88
2019-05-02T00:36:28.478Z,9.43
2019-05-02T00:38:57.217Z,9.97
2019-05-02T00:41:25.970Z,10.32
2019-05-02T00:43:54.697Z,5.73
2019-05-02T00:46:23.517Z,11.43
2019-05-02T00:49:01.852Z,10.23
2019-05-02T00:51:30.756Z,10.82
2019-05-02T00:53:59.482Z,12.47
2019-05-02T00:56:28.223Z,11.78
2019-05-02T00:58:56.947Z,10.98
2019-05-02T01:01:31.130Z,12.58
2019-05-02T01:04:07.632Z,12.88
2019-05-02T01:06:36.463Z,14.40
2019-05-02T01:09:11.023Z,10.47
2019-05-02T01:11:37.730Z,12.93
2019-05-02T01:14:06.469Z,12.70
2019-05-02T01:16:35.264Z,10.60
2019-05-02T01:19:04.004Z,12.35
2019-05-02T01:21:33.953Z,11.57
2019-05-02T01:24:03.296Z,6.22
2019-05-02T01:26:40.578Z,11.68
2019-05-02T01:29:15.822Z,11.95
2019-05-02T01:31:55.890Z,12.73
2019-05-02T01:34:28.984Z,8.73
2019-05-02T01:37:05.142Z,13.35
2019-05-02T01:39:37.926Z,9.28
2019-05-02T01:42:05.374Z,13.70
2019-05-02T01:44:36.237Z,13.75
2019-05-02T01:47:04.659Z,14.53
2019-05-02T01:49:33.405Z,15.57
2019-05-02T01:52:02.142Z,14.97
2019-05-02T01:54:30.966Z,14.68
2019-05-02T01:57:03.831Z,13.53
2019-05-02T01:59:33.910Z,16.30
2019-05-02T02:02:00.559Z,13.20
2019-05-02T02:04:29.295Z,16.03
2019-05-02T02:06:58.047Z,14.20
2019-05-02T02:09:26.789Z,17.57
2019-05-02T02:11:55.524Z,16.07
2019-05-02T02:14:24.257Z,18.05
2019-05-02T02:16:52.997Z,16.55
2019-05-02T02:19:26.052Z,18.65
2019-05-02T02:22:05.467Z,16.85
2019-05-02T02:24:38.304Z,16.95
2019-05-02T02:27:06.223Z,17.25
2019-05-02T02:29:39.098Z,18.87
2019-05-02T02:32:05.521Z,16.95
2019-05-02T02:34:34.262Z,20.50
2019-05-02T02:37:05.608Z,18.60
2019-05-02T02:39:33.466Z,20.45
2019-05-02T02:42:02.202Z,21.37
2019-05-02T02:44:50.877Z,18.90
2019-05-02T02:47:21.218Z,20.65
2019-05-02T02:49:56.116Z,20.17
2019-05-02T02:52:20.560Z,18.73
2019-05-02T02:54:49.276Z,19.20
2019-05-02T02:57:26.041Z,18.90
2019-05-02T02:59:48.379Z,19.87
2019-05-02T03:02:17.114Z,17.52
2019-05-02T03:04:46.449Z,19.63
2019-05-02T03:07:24.627Z,19.27
2019-05-02T03:09:45.989Z,18.45
2019-05-02T03:12:22.083Z,19.60
2019-05-02T03:14:52.450Z,17.92
2019-05-02T03:17:26.008Z,18.75
2019-05-02T03:19:54.488Z,20.27
2019-05-02T03:22:22.250Z,18.20
2019-05-02T03:24:50.999Z,18.77
2019-05-02T03:27:19.742Z,18.17
2019-05-02T03:29:49.305Z,16.70
2019-05-02T03:32:31.810Z,16.57
2019-05-02T03:34:53.497Z,15.93
2019-05-02T03:37:21.718Z,15.20
2019-05-02T03:39:57.267Z,14.97
2019-05-02T03:42:20.924Z,14.25
2019-05-02T03:44:56.940Z,14.43
2019-05-02T03:47:20.041Z,12.07
2019-05-02T03:49:51.916Z,13.17
2019-05-02T03:52:19.527Z,12.47
2019-05-02T03:54:50.188Z,12.60
2019-05-02T03:57:25.181Z,12.68
2019-05-02T03:59:49.234Z,11.38
2019-05-02T04:02:20.380Z,11.95
2019-05-02T04:04:54.219Z,11.03
2019-05-02T04:07:19.825Z,12.80
2019-05-02T04:12:21.334Z,11.60
2019-05-02T04:14:47.839Z,12.37
2019-05-02T04:17:17.045Z,12.37
2019-05-02T04:19:45.792Z,11.30
2019-05-02T04:22:15.478Z,14.43
2019-05-02T04:27:13.841Z,11.88
2019-05-02T04:29:42.739Z,11.97
2019-05-02T04:32:14.345Z,12.80
2019-05-02T04:34:48.843Z,12.58
2019-05-02T04:37:17.940Z,13.22
2019-05-02T04:39:48.873Z,13.32
2019-05-02T04:42:22.094Z,14.10
2019-05-02T04:45:09.413Z,13.90
2019-05-02T04:47:22.148Z,14.35
2019-05-02T04:49:52.060Z,15.35
2019-05-02T04:52:21.410Z,8.75
2019-05-02T04:54:50.411Z,14.20
2019-05-02T04:57:19.286Z,14.60
2019-05-02T04:59:50.392Z,15.47
2019-05-02T05:02:21.328Z,15.48
2019-05-02T05:04:49.526Z,15.45
2019-05-02T05:07:18.437Z,14.80
2019-05-02T05:09:56.916Z,14.73
2019-05-02T05:12:19.456Z,15.00
2019-05-02T05:14:48.267Z,15.43
2019-05-02T05:17:19.723Z,15.60
2019-05-02T05:19:48.744Z,15.05
2019-05-02T05:22:18.445Z,16.93
2019-05-02T05:25:00.915Z,14.47
2019-05-02T05:27:29.747Z,14.90
2019-05-02T05:30:02.434Z,15.27
2019-05-02T05:32:31.781Z,16.35
2019-05-02T05:35:07.829Z,16.48
2019-05-02T05:37:33.596Z,14.53
2019-05-02T05:40:02.813Z,16.23
2019-05-02T05:42:33.327Z,14.35
2019-05-02T05:45:03.913Z,14.95
2019-05-02T05:47:33.778Z,15.45
2019-05-02T05:50:02.537Z,15.13
2019-05-02T05:52:33.210Z,16.73
2019-05-02T05:55:05.263Z,16.82
2019-05-02T05:57:35.283Z,16.05
2019-05-02T06:00:15.451Z,16.52
2019-05-02T06:02:52.815Z,14.65
2019-05-02T06:05:09.984Z,14.43
2019-05-02T06:07:41.816Z,13.22
2019-05-02T06:10:09.956Z,14.85
2019-05-02T06:12:40.203Z,14.53
2019-05-02T06:15:11.432Z,13.70
2019-05-02T06:17:40.101Z,13.32
2019-05-02T06:20:08.914Z,13.73
2019-05-02T06:22:37.690Z,14.33
2019-05-02T06:25:10.064Z,12.60
2019-05-02T06:27:40.114Z,14.20
2019-05-02T06:30:13.042Z,13.45
2019-05-02T06:32:45.411Z,14.25
2019-05-02T06:35:17.184Z,12.85
2019-05-02T06:37:49.921Z,13.55
2019-05-02T06:40:24.682Z,13.78
2019-05-02T06:42:53.477Z,13.30
2019-05-02T06:45:22.425Z,13.80
2019-05-02T06:47:51.239Z,13.68
2019-05-02T06:50:21.168Z,15.32
2019-05-02T06:52:50.017Z,12.73
2019-05-02T06:55:20.159Z,11.73
2019-05-02T06:57:56.992Z,12.13
2019-05-02T07:00:35.596Z,12.85
2019-05-02T07:02:56.887Z,13.03
2019-05-02T07:05:27.170Z,13.25
2019-05-02T07:07:56.328Z,11.80
2019-05-02T07:10:26.593Z,14.90
2019-05-02T07:13:09.435Z,13.68
2019-05-02T07:15:33.531Z,13.45
2019-05-02T07:18:10.704Z,14.28
2019-05-02T07:20:42.621Z,13.90
2019-05-02T07:23:16.236Z,13.48
2019-05-02T07:25:44.182Z,14.98
2019-05-02T07:28:13.920Z,15.03
2019-05-02T07:30:42.670Z,15.30
2019-05-02T07:33:11.392Z,13.97
2019-05-02T07:35:40.118Z,13.80
2019-05-02T07:38:08.928Z,16.90
2019-05-02T07:40:37.657Z,17.47
2019-05-02T07:43:13.447Z,18.10
2019-05-02T07:45:45.304Z,20.95
2019-05-02T07:48:17.874Z,20.62
2019-05-02T07:50:46.456Z,23.55
2019-05-02T07:53:14.672Z,20.43
2019-05-02T07:55:43.590Z,24.27
2019-05-02T07:58:12.397Z,25.32
2019-05-02T08:00:41.632Z,24.53
2019-05-02T08:03:11.495Z,27.55
2019-05-02T08:05:40.312Z,18.82
2019-05-02T08:08:10.446Z,31.50
2019-05-02T08:10:39.278Z,30.72
2019-05-02T08:13:12.105Z,29.65
2019-05-02T08:15:38.392Z,26.42
2019-05-02T08:18:07.129Z,27.33
2019-05-02T08:20:35.858Z,26.80
2019-05-02T08:23:06.103Z,25.43
2019-05-02T08:25:34.834Z,20.80
2019-05-02T08:28:10.028Z,13.83
2019-05-02T08:30:41.769Z,20.80
2019-05-02T08:33:10.667Z,22.32
2019-05-02T08:35:39.393Z,19.13
2019-05-02T08:38:12.484Z,17.07
2019-05-02T08:40:42.233Z,17.25
2019-05-02T08:43:10.968Z,8.65
2019-05-02T08:45:39.863Z,13.50
2019-05-02T08:48:10.219Z,14.40
2019-05-02T08:50:38.998Z,10.10
2019-05-02T08:53:07.731Z,12.35
2019-05-02T08:55:36.473Z,10.97
2019-05-02T08:58:14.008Z,9.67
2019-05-02T09:00:37.602Z,5.47
2019-05-02T09:03:06.923Z,8.98
2019-05-02T09:05:36.896Z,5.27
2019-05-02T09:08:09.198Z,7.85
2019-05-02T09:10:37.145Z,7.60
2019-05-02T09:13:06.912Z,8.50
2019-05-02T09:15:40.394Z,4.25
2019-05-02T09:18:06.037Z,6.15
2019-05-02T09:20:34.756Z,6.87
2019-05-02T09:23:03.490Z,6.40
2019-05-02T09:25:32.457Z,5.27
2019-05-02T09:28:01.838Z,4.78
2019-05-02T09:30:32.568Z,4.85
2019-05-02T09:33:02.808Z,5.25
2019-05-02T09:35:32.828Z,4.65
2019-05-02T09:38:02.121Z,4.37
2019-05-02T09:40:32.837Z,4.35
2019-05-02T09:43:04.770Z,3.62
2019-05-02T09:45:45.028Z,4.87
2019-05-02T09:48:17.083Z,4.05
2019-05-02T09:50:45.291Z,4.33
2019-05-02T09:53:20.771Z,3.75
2019-05-02T09:55:50.376Z,5.30
2019-05-02T09:58:21.059Z,6.45
2019-05-02T10:01:02.039Z,6.70
2019-05-02T10:03:31.897Z,5.05
2019-05-02T10:06:03.096Z,8.25
2019-05-02T10:08:38.379Z,8.58
2019-05-02T10:11:05.198Z,7.58
2019-05-02T10:13:34.132Z,7.50
2019-05-02T10:16:02.921Z,8.70
2019-05-02T10:18:33.193Z,6.80
2019-05-02T10:21:07.872Z,8.05
2019-05-02T10:23:34.111Z,3.20
2019-05-02T10:26:03.016Z,9.68
2019-05-02T10:28:32.339Z,7.45
2019-05-02T10:31:02.291Z,7.78
2019-05-02T10:33:33.727Z,9.15
2019-05-02T10:36:02.668Z,8.50
2019-05-02T10:38:32.572Z,9.78
2019-05-02T10:41:04.796Z,7.37
2019-05-02T10:43:33.041Z,4.10
2019-05-02T10:46:18.802Z,8.88
2019-05-02T10:48:56.227Z,8.68
2019-05-02T10:51:34.572Z,5.33
2019-05-02T10:54:05.036Z,6.35
2019-05-02T10:56:35.427Z,6.83
2019-05-02T10:59:04.429Z,8.25
2019-05-02T11:01:35.123Z,6.30
2019-05-02T11:04:12.855Z,6.08
2019-05-02T11:06:46.325Z,5.78
2019-05-02T11:09:16.708Z,7.97
2019-05-02T11:11:44.830Z,6.28
2019-05-02T11:14:24.210Z,7.03
2019-05-02T11:16:57.291Z,7.25
2019-05-02T11:19:46.000Z,5.60
2019-05-02T11:22:14.733Z,5.43
2019-05-02T11:24:43.498Z,3.80
2019-05-02T11:27:12.818Z,3.10
2019-05-02T11:29:42.521Z,4.28
2019-05-02T11:32:12.802Z,2.65
2019-05-02T11:34:42.098Z,3.52
2019-05-02T11:37:12.102Z,2.33
2019-05-02T11:39:48.979Z,1.98
2019-05-02T11:42:12.502Z,3.30
2019-05-02T11:44:43.850Z,3.45
2019-05-02T11:47:12.769Z,3.33
2019-05-02T11:49:46.779Z,1.92
2019-05-02T11:52:15.846Z,3.30
2019-05-02T11:54:48.324Z,2.98
2019-05-02T11:57:14.963Z,1.70
2019-05-02T11:59:44.260Z,2.80
2019-05-02T12:02:22.006Z,2.58
2019-05-02T12:04:52.478Z,3.10
2019-05-02T12:07:23.673Z,2.30
2019-05-02T12:09:57.101Z,1.98
2019-05-02T12:12:22.809Z,2.22
2019-05-02T12:14:53.229Z,1.80
2019-05-02T12:17:23.501Z,1.62
2019-05-02T12:19:52.381Z,2.17
2019-05-02T12:22:22.581Z,2.35
2019-05-02T12:24:51.930Z,2.47
2019-05-02T12:27:22.094Z,3.00
2019-05-02T12:29:58.010Z,2.52
2019-05-02T12:32:26.219Z,3.30
2019-05-02T12:34:57.052Z,2.98
2019-05-02T12:37:25.750Z,2.30
2019-05-02T12:39:54.522Z,2.57
2019-05-02T12:42:24.141Z,2.27
2019-05-02T12:44:53.392Z,3.12
2019-05-02T12:47:22.598Z,2.95
2019-05-02T12:49:51.906Z,2.25
2019-05-02T12:52:22.628Z,3.10
2019-05-02T12:54:52.584Z,3.27
2019-05-02T12:57:21.975Z,2.98
2019-05-02T12:59:52.887Z,2.85
2019-05-02T13:02:34.136Z,3.12
2019-05-02T13:05:05.817Z,3.05
2019-05-02T13:07:42.188Z,3.85
2019-05-02T13:10:13.171Z,3.05
2019-05-02T13:12:45.769Z,3.02
2019-05-02T13:15:16.006Z,2.98
2019-05-02T13:17:48.802Z,2.02
2019-05-02T13:20:18.048Z,2.77
2019-05-02T13:22:52.685Z,3.00
2019-05-02T13:25:27.234Z,2.90
2019-05-02T13:27:56.484Z,1.42
2019-05-02T13:30:45.043Z,3.50
2019-05-02T13:33:12.615Z,1.25
2019-05-02T13:35:43.275Z,3.22
2019-05-02T13:38:12.973Z,3.10
2019-05-02T13:40:43.634Z,2.90
2019-05-02T13:43:16.106Z,3.52
2019-05-02T13:45:49.716Z,3.33
2019-05-02T13:48:18.449Z,3.60
2019-05-02T13:50:47.237Z,2.97
2019-05-02T13:53:15.983Z,4.40
2019-05-02T13:56:02.775Z,4.67
2019-05-02T13:58:33.216Z,4.47
2019-05-02T14:01:03.428Z,5.12
2019-05-02T14:03:32.612Z,4.95
2019-05-02T14:06:02.960Z,5.25
2019-05-02T14:08:45.719Z,4.97
2019-05-02T14:11:32.608Z,5.25
2019-05-02T14:14:01.967Z,5.05
2019-05-02T14:16:32.076Z,5.15
2019-05-02T14:19:02.864Z,5.30
2019-05-02T14:21:32.199Z,5.97
2019-05-02T14:24:01.679Z,5.85
2019-05-02T14:26:32.709Z,5.60
2019-05-02T14:29:02.579Z,5.05
2019-05-02T14:31:32.349Z,5.17
2019-05-02T14:34:03.618Z,4.58
2019-05-02T14:36:32.601Z,5.25
2019-05-02T14:39:02.344Z,4.50
2019-05-02T14:41:40.929Z,4.25
2019-05-02T14:44:02.834Z,4.50
2019-05-02T14:46:37.391Z,3.80
2019-05-02T14:49:04.177Z,3.67
2019-05-02T14:51:36.322Z,3.08
2019-05-02T14:54:07.891Z,2.77
2019-05-02T14:56:37.719Z,4.50
2019-05-02T14:59:09.255Z,2.37
2019-05-02T15:01:38.153Z,3.10
2019-05-02T15:04:08.377Z,3.00
2019-05-02T15:06:38.383Z,3.80
2019-05-02T15:09:08.698Z,3.83
2019-05-02T15:11:39.110Z,3.80
2019-05-02T15:14:11.397Z,2.52
2019-05-02T15:16:42.235Z,3.70
2019-05-02T15:19:08.828Z,3.15
2019-05-02T15:21:47.059Z,2.85
2019-05-02T15:24:13.813Z,3.02
2019-05-02T15:26:42.638Z,2.70
2019-05-02T15:29:19.227Z,2.95
2019-05-02T15:31:57.986Z,2.90
2019-05-02T15:34:30.314Z,3.15
2019-05-02T15:36:59.194Z,3.00
2019-05-02T15:41:58.585Z,2.98
2019-05-02T15:44:27.313Z,3.35
2019-05-02T15:46:58.450Z,2.93
2019-05-02T15:49:26.508Z,3.00
2019-05-02T15:51:55.315Z,2.60
2019-05-02T15:54:24.127Z,2.53
2019-05-02T15:57:00.303Z,2.20
2019-05-02T15:59:37.395Z,2.30
2019-05-02T16:02:10.060Z,2.35
2019-05-02T16:04:41.720Z,3.87
2019-05-02T16:07:12.138Z,2.05
2019-05-02T16:09:41.675Z,2.45
2019-05-02T16:12:12.060Z,2.20
2019-05-02T16:14:42.470Z,2.20
2019-05-02T16:17:12.463Z,1.42
2019-05-02T16:19:43.316Z,1.65
2019-05-02T16:22:19.057Z,1.20
2019-05-02T16:24:49.105Z,1.37
2019-05-02T16:27:23.743Z,1.70
2019-05-02T16:29:48.563Z,1.60
2019-05-02T16:32:22.110Z,2.07
2019-05-02T16:34:54.694Z,1.30
2019-05-02T16:37:23.185Z,1.45
2019-05-02T16:39:51.922Z,1.00
2019-05-02T16:42:22.549Z,1.07
2019-05-02T16:44:52.240Z,1.50
2019-05-02T16:47:21.981Z,1.22
2019-05-02T16:49:53.285Z,2.20
2019-05-02T16:52:23.611Z,1.55
2019-05-02T16:54:52.785Z,1.67
2019-05-02T16:57:22.509Z,1.40
2019-05-02T16:59:53.953Z,1.75
2019-05-02T17:02:22.702Z,1.70
2019-05-02T17:04:54.646Z,1.23
2019-05-02T17:07:25.233Z,1.50
2019-05-02T17:09:55.588Z,1.37
2019-05-02T17:12:24.386Z,1.60
2019-05-02T17:15:13.725Z,3.33
2019-05-02T17:17:42.878Z,2.00
2019-05-02T17:20:16.518Z,1.52
2019-05-02T17:22:43.928Z,1.62
2019-05-02T17:25:14.285Z,1.32
2019-05-02T17:27:43.036Z,1.30
2019-05-02T17:30:13.216Z,2.17
2019-05-02T17:32:41.912Z,2.22
2019-05-02T17:35:14.641Z,2.87
2019-05-02T17:37:48.638Z,1.05
2019-05-02T17:40:16.822Z,1.32
2019-05-02T17:42:45.389Z,2.27
2019-05-02T17:45:14.862Z,1.67
2019-05-02T17:47:43.569Z,1.52
2019-05-02T17:50:19.503Z,1.52
2019-05-02T17:52:49.988Z,1.82
2019-05-02T17:55:21.669Z,2.35
2019-05-02T17:57:51.600Z,1.70
2019-05-02T18:00:24.556Z,1.57
2019-05-02T18:02:55.413Z,1.30
2019-05-02T18:05:26.558Z,1.20
2019-05-02T18:07:55.617Z,1.45
2019-05-02T18:10:27.584Z,1.97
2019-05-02T18:12:59.915Z,1.70
2019-05-02T18:15:29.964Z,1.35
2019-05-02T18:17:59.854Z,1.05
2019-05-02T18:20:29.097Z,1.00
2019-05-02T18:22:59.171Z,0.90
2019-05-02T18:25:27.890Z,1.30
2019-05-02T18:27:56.622Z,1.17
2019-05-02T18:30:26.959Z,1.20
2019-05-02T18:32:57.730Z,0.85
2019-05-02T18:35:26.156Z,1.00
2019-05-02T18:37:54.930Z,1.30
2019-05-02T18:40:27.733Z,1.33
2019-05-02T18:42:56.606Z,1.15
2019-05-02T18:45:28.559Z,1.45
2019-05-02T18:48:02.277Z,1.27
2019-05-02T18:50:31.919Z,1.10
2019-05-02T18:53:03.471Z,1.17
2019-05-02T18:55:31.776Z,1.00
2019-05-02T18:58:02.485Z,0.88
2019-05-02T19:00:36.146Z,1.20
2019-05-02T19:03:07.443Z,1.00
2019-05-02T19:05:36.554Z,1.40
2019-05-02T19:08:05.402Z,1.15
2019-05-02T19:10:37.123Z,1.80
2019-05-02T19:13:06.116Z,1.60
2019-05-02T19:15:39.502Z,1.95
2019-05-02T19:18:05.522Z,1.15
2019-05-02T19:20:37.172Z,1.47
2019-05-02T19:23:05.903Z,1.00
2019-05-02T19:25:34.648Z,1.12
2019-05-02T19:28:17.454Z,1.10
2019-05-02T19:30:46.246Z,1.42
2019-05-02T19:33:15.084Z,1.43
2019-05-02T19:35:46.929Z,1.27
2019-05-02T19:38:17.211Z,1.10
2019-05-02T19:40:44.556Z,1.30
2019-05-02T19:43:15.745Z,1.52
2019-05-02T19:45:45.788Z,1.30
2019-05-02T19:48:15.678Z,1.47
2019-05-02T19:50:44.533Z,1.55
2019-05-02T19:53:18.138Z,2.20
2019-05-02T19:55:43.715Z,1.98
2019-05-02T19:58:12.461Z,1.82
2019-05-02T20:00:45.894Z,1.62
2019-05-02T20:03:13.721Z,1.15
2019-05-02T20:05:42.772Z,1.35
2019-05-02T20:10:42.347Z,1.30
2019-05-02T20:13:12.092Z,1.72
2019-05-02T20:15:45.153Z,1.55
2019-05-02T20:18:13.918Z,1.60
2019-05-02T20:20:46.850Z,1.57
2019-05-02T20:23:18.507Z,1.45
2019-05-02T20:25:46.070Z,1.60
2019-05-02T20:28:14.800Z,1.50
2019-05-02T20:30:43.531Z,1.37
2019-05-02T20:33:12.865Z,1.63
2019-05-02T20:35:42.147Z,1.45
2019-05-02T20:38:11.771Z,1.37
2019-05-02T20:40:42.615Z,1.40
2019-05-02T20:43:12.130Z,1.42
2019-05-02T20:45:41.071Z,1.60
2019-05-02T20:48:11.786Z,1.55
2019-05-02T20:50:42.291Z,1.70
2019-05-02T20:53:12.754Z,1.30
2019-05-02T20:55:41.669Z,1.70
2019-05-02T20:58:12.570Z,1.30
2019-05-02T21:00:42.688Z,1.47
2019-05-02T21:03:11.984Z,1.82
2019-05-02T21:05:45.680Z,1.77
2019-05-02T21:08:32.585Z,2.00
2019-05-02T21:11:03.199Z,1.70
2019-05-02T21:13:32.739Z,1.62
2019-05-02T21:18:32.664Z,1.70
2019-05-02T21:21:01.242Z,1.90
2019-05-02T21:23:41.895Z,1.67
2019-05-02T21:26:01.868Z,1.80
2019-05-02T21:28:32.119Z,1.50
2019-05-02T21:31:02.919Z,1.57
2019-05-02T21:33:37.345Z,1.67
2019-05-02T21:36:06.644Z,1.50
2019-05-02T21:38:35.447Z,1.65
2019-05-02T21:41:07.587Z,1.50
2019-05-02T21:43:36.351Z,1.90
2019-05-02T21:46:05.070Z,1.57
2019-05-02T21:48:33.808Z,1.55
2019-05-02T21:51:13.163Z,1.37
2019-05-02T21:53:55.119Z,1.90
2019-05-02T21:56:21.850Z,1.65
2019-05-02T21:59:04.303Z,2.22
2019-05-02T22:01:35.015Z,2.00
2019-05-02T22:04:03.817Z,2.15
2019-05-02T22:06:32.643Z,2.10
2019-05-02T22:09:03.058Z,1.50
2019-05-02T22:11:32.089Z,1.90
2019-05-02T22:14:02.396Z,1.47
2019-05-02T22:16:32.677Z,1.70
2019-05-02T22:19:02.869Z,1.92
2019-05-02T22:21:34.667Z,1.05
2019-05-02T22:24:08.970Z,2.08
2019-05-02T22:26:32.879Z,1.82
2019-05-02T22:29:02.036Z,1.70
2019-05-02T22:31:32.405Z,1.55
2019-05-02T22:34:02.157Z,1.50
2019-05-02T22:39:02.185Z,1.77
2019-05-02T22:41:32.619Z,1.32
2019-05-02T22:44:01.926Z,1.42
2019-05-02T22:49:15.363Z,1.35
2019-05-02T22:51:44.610Z,1.52
2019-05-02T22:54:24.055Z,1.70
2019-05-02T22:56:43.769Z,1.57
2019-05-02T22:59:12.525Z,1.60
2019-05-02T23:01:42.155Z,1.70
2019-05-02T23:04:12.754Z,1.60
2019-05-02T23:06:43.916Z,1.60
2019-05-02T23:09:12.642Z,1.70
2019-05-02T23:11:42.579Z,1.50
2019-05-02T23:14:11.601Z,2.08
2019-05-02T23:16:42.777Z,1.50
2019-05-02T23:19:12.328Z,1.80
2019-05-02T23:21:42.241Z,1.95
2019-05-02T23:24:14.600Z,1.82
2019-05-02T23:27:00.067Z,1.20
2019-05-02T23:29:28.808Z,0.75
2019-05-02T23:31:57.596Z,1.77
2019-05-02T23:34:26.386Z,1.70
2019-05-02T23:36:55.087Z,1.90
2019-05-02T23:39:23.819Z,1.98
2019-05-02T23:41:54.535Z,1.47
2019-05-02T23:44:23.265Z,1.95
2019-05-02T23:46:51.974Z,1.55
2019-05-02T23:49:22.001Z,1.50
2019-05-02T23:51:50.938Z,1.85
2019-05-02T23:54:22.615Z,1.10
2019-05-02T23:56:51.345Z,1.90
2019-05-02T23:59:22.223Z,1.87
